createdAt,value
2017-11-19T00:00:00.933Z,3.80
2017-11-19T00:02:30.316Z,3.80
2017-11-19T00:04:59.634Z,3.90
2017-11-19T00:07:28.998Z,3.80
2017-11-19T00:09:57.914Z,3.80
2017-11-19T00:12:27.639Z,3.90
2017-11-19T00:14:56.977Z,4.00
2017-11-19T00:17:26.298Z,3.90
2017-11-19T00:19:56.038Z,4.00
2017-11-19T00:22:25.793Z,4.00
2017-11-19T00:24:55.487Z,3.90
2017-11-19T00:27:25.219Z,3.90
2017-11-19T00:29:54.593Z,3.90
2017-11-19T00:32:24.277Z,3.90
2017-11-19T00:34:53.994Z,3.90
2017-11-19T00:37:23.289Z,3.90
2017-11-19T00:39:53.092Z,3.80
2017-11-19T00:42:22.002Z,3.90
2017-11-19T00:44:50.988Z,3.90
2017-11-19T00:47:20.731Z,4.00
2017-11-19T00:49:50.463Z,3.90
2017-11-19T00:52:19.433Z,3.90
2017-11-19T00:54:48.393Z,3.90
2017-11-19T00:57:18.090Z,3.90
2017-11-19T00:59:47.035Z,3.90
2017-11-19T01:02:15.983Z,3.90
2017-11-19T01:04:45.701Z,4.10
2017-11-19T01:07:14.682Z,4.10
2017-11-19T01:09:44.420Z,4.10
2017-11-19T01:12:13.344Z,4.10
2017-11-19T01:14:42.325Z,4.10
2017-11-19T01:17:11.262Z,4.10
2017-11-19T01:19:40.977Z,4.00
2017-11-19T01:22:10.682Z,4.10
2017-11-19T01:24:40.395Z,4.10
2017-11-19T01:27:10.164Z,4.10
2017-11-19T01:29:39.143Z,4.10
2017-11-19T01:32:09.230Z,4.10
2017-11-19T01:34:38.148Z,4.00
2017-11-19T01:37:07.137Z,4.20
2017-11-19T01:39:36.102Z,4.20
2017-11-19T01:42:05.070Z,4.30
2017-11-19T01:44:34.005Z,4.40
2017-11-19T01:47:02.974Z,4.40
2017-11-19T01:49:32.670Z,4.30
2017-11-19T01:52:02.372Z,4.30
2017-11-19T01:54:32.184Z,4.30
2017-11-19T01:57:01.950Z,4.30
2017-11-19T01:59:31.005Z,4.30
2017-11-19T02:01:59.942Z,4.30
2017-11-19T02:04:28.891Z,4.30
2017-11-19T02:06:57.816Z,4.20
2017-11-19T02:09:26.850Z,4.30
2017-11-19T02:11:56.573Z,4.30
2017-11-19T02:14:26.310Z,4.40
2017-11-19T02:16:55.246Z,4.40
2017-11-19T02:19:24.165Z,4.40
2017-11-19T02:21:53.904Z,4.40
2017-11-19T02:24:22.884Z,4.40
2017-11-19T02:26:52.282Z,4.40
2017-11-19T02:29:22.033Z,4.50
2017-11-19T02:31:51.003Z,4.50
2017-11-19T02:34:20.334Z,4.50
2017-11-19T02:36:49.282Z,4.50
2017-11-19T02:39:18.218Z,4.40
2017-11-19T02:41:47.304Z,4.40
2017-11-19T02:44:16.346Z,4.30
2017-11-19T02:46:46.042Z,4.20
2017-11-19T02:49:14.977Z,4.30
2017-11-19T02:51:47.320Z,4.20
2017-11-19T02:54:17.088Z,4.30
2017-11-19T02:56:46.212Z,4.40
2017-11-19T02:59:15.245Z,4.50
2017-11-19T03:01:44.214Z,4.60
2017-11-19T03:04:13.144Z,4.70
2017-11-19T03:06:42.694Z,4.70
2017-11-19T03:09:11.643Z,4.70
2017-11-19T03:11:40.593Z,4.70
2017-11-19T03:14:09.572Z,4.80
2017-11-19T03:16:39.313Z,4.80
2017-11-19T03:19:09.104Z,4.80
2017-11-19T03:21:38.926Z,4.90
2017-11-19T03:24:08.247Z,4.80
2017-11-19T03:26:37.204Z,4.80
2017-11-19T03:29:06.902Z,4.80
2017-11-19T03:31:36.723Z,4.80
2017-11-19T03:34:06.453Z,4.70
2017-11-19T03:36:35.625Z,4.70
2017-11-19T03:39:06.071Z,4.60
2017-11-19T03:41:35.032Z,4.70
2017-11-19T03:44:04.391Z,4.60
2017-11-19T03:46:33.433Z,4.50
2017-11-19T03:49:03.003Z,4.50
2017-11-19T03:51:31.964Z,4.50
2017-11-19T03:54:00.900Z,4.50
2017-11-19T03:56:29.878Z,4.50
2017-11-19T03:58:58.812Z,4.40
2017-11-19T04:01:28.217Z,4.40
2017-11-19T04:03:57.138Z,4.40
2017-11-19T04:06:26.097Z,4.50
2017-11-19T04:08:55.809Z,4.40
2017-11-19T04:11:25.537Z,4.40
2017-11-19T04:13:54.470Z,4.40
2017-11-19T04:16:23.409Z,4.40
2017-11-19T04:18:53.258Z,4.50
2017-11-19T04:21:22.210Z,4.50
2017-11-19T04:23:51.928Z,4.40
2017-11-19T04:26:21.625Z,4.50
2017-11-19T04:28:51.328Z,4.60
2017-11-19T04:31:21.041Z,4.60
2017-11-19T04:33:50.731Z,4.70
2017-11-19T04:36:19.695Z,4.80
2017-11-19T04:38:48.627Z,4.80
2017-11-19T04:41:17.597Z,4.70
2017-11-19T04:43:46.509Z,4.70
2017-11-19T04:46:15.538Z,4.70
2017-11-19T04:48:44.498Z,4.60
2017-11-19T04:51:13.457Z,4.60
2017-11-19T04:53:42.403Z,4.60
2017-11-19T04:56:11.420Z,4.50
2017-11-19T04:58:40.387Z,4.40
2017-11-19T05:01:10.125Z,4.40
2017-11-19T05:03:39.134Z,4.40
2017-11-19T05:06:08.833Z,4.40
2017-11-19T05:08:37.865Z,4.40
2017-11-19T05:11:06.815Z,4.50
2017-11-19T05:13:35.761Z,4.50
2017-11-19T05:16:05.495Z,4.50
2017-11-19T05:18:34.438Z,4.50
2017-11-19T05:21:03.440Z,4.50
2017-11-19T05:23:32.344Z,4.50
2017-11-19T05:26:02.715Z,4.60
2017-11-19T05:28:31.653Z,4.50
2017-11-19T05:31:01.515Z,4.50
2017-11-19T05:33:30.427Z,4.50
2017-11-19T05:36:00.894Z,4.60
2017-11-19T05:38:30.627Z,4.60
2017-11-19T05:41:00.012Z,4.70
2017-11-19T05:43:29.712Z,4.70
2017-11-19T05:45:59.474Z,4.70
2017-11-19T05:48:28.439Z,4.60
2017-11-19T05:50:58.145Z,4.70
2017-11-19T05:53:27.110Z,4.60
2017-11-19T05:55:56.859Z,4.50
2017-11-19T05:58:25.817Z,4.60
2017-11-19T06:00:56.525Z,4.60
2017-11-19T06:03:25.477Z,4.70
2017-11-19T06:05:54.468Z,4.70
2017-11-19T06:08:23.478Z,4.70
2017-11-19T06:10:52.451Z,4.80
2017-11-19T06:13:22.219Z,4.90
2017-11-19T06:15:51.942Z,4.90
2017-11-19T06:18:21.675Z,4.80
2017-11-19T06:20:50.642Z,4.80
2017-11-19T06:23:20.437Z,4.80
2017-11-19T06:25:49.648Z,4.80
2017-11-19T06:28:19.454Z,4.80
2017-11-19T06:30:49.184Z,4.70
2017-11-19T06:33:18.147Z,4.70
2017-11-19T06:35:47.843Z,4.70
2017-11-19T06:38:16.814Z,4.70
2017-11-19T06:40:45.799Z,4.70
2017-11-19T06:43:14.804Z,4.70
2017-11-19T06:45:43.827Z,4.70
2017-11-19T06:48:13.247Z,4.70
2017-11-19T06:50:43.027Z,4.80
2017-11-19T06:53:11.990Z,4.90
2017-11-19T06:55:41.026Z,5.00
2017-11-19T06:58:10.763Z,5.10
2017-11-19T07:00:39.707Z,5.20
2017-11-19T07:03:08.684Z,5.20
2017-11-19T07:05:37.655Z,5.10
2017-11-19T07:08:06.614Z,5.00
2017-11-19T07:10:35.568Z,5.00
2017-11-19T07:13:04.522Z,5.00
2017-11-19T07:15:33.563Z,4.90
2017-11-19T07:18:03.252Z,5.00
2017-11-19T07:20:32.225Z,5.00
2017-11-19T07:23:01.158Z,5.00
2017-11-19T07:25:30.139Z,5.10
2017-11-19T07:27:59.075Z,5.30
2017-11-19T07:30:28.801Z,5.40
2017-11-19T07:32:58.141Z,5.40
2017-11-19T07:35:27.861Z,5.50
2017-11-19T07:37:57.180Z,5.50
2017-11-19T07:40:26.986Z,5.60
2017-11-19T07:42:56.695Z,5.60
2017-11-19T07:45:26.400Z,5.60
2017-11-19T07:47:55.752Z,5.60
2017-11-19T07:50:25.117Z,5.40
2017-11-19T07:52:54.856Z,5.40
2017-11-19T07:55:23.900Z,5.40
2017-11-19T07:57:53.052Z,5.50
2017-11-19T08:00:22.765Z,5.50
2017-11-19T08:02:52.485Z,5.60
2017-11-19T08:05:21.791Z,5.60
2017-11-19T08:07:50.757Z,5.60
2017-11-19T08:10:19.718Z,5.70
2017-11-19T08:12:49.452Z,5.80
2017-11-19T08:15:18.405Z,5.80
2017-11-19T08:17:47.816Z,5.70
2017-11-19T08:20:17.539Z,5.80
2017-11-19T08:22:46.531Z,5.80
2017-11-19T08:25:15.526Z,5.80
2017-11-19T08:27:44.467Z,5.80
2017-11-19T08:30:13.413Z,5.90
2017-11-19T08:32:42.375Z,6.10
2017-11-19T08:35:11.376Z,6.10
2017-11-19T08:37:41.091Z,6.10
2017-11-19T08:40:11.038Z,6.00
2017-11-19T08:42:40.726Z,6.00
2017-11-19T08:45:10.095Z,6.00
2017-11-19T08:47:39.046Z,6.10
2017-11-19T08:50:08.026Z,6.10
2017-11-19T08:52:37.748Z,6.30
2017-11-19T08:55:06.697Z,6.50
2017-11-19T08:57:36.063Z,6.70
2017-11-19T09:00:04.990Z,6.60
2017-11-19T09:02:34.337Z,6.50
2017-11-19T09:05:03.334Z,6.50
2017-11-19T09:07:33.638Z,6.50
2017-11-19T09:10:02.922Z,6.40
2017-11-19T09:12:31.856Z,6.30
2017-11-19T09:15:02.286Z,6.30
2017-11-19T09:17:31.237Z,6.30
2017-11-19T09:20:00.214Z,6.50
2017-11-19T09:22:29.949Z,6.60
2017-11-19T09:24:58.978Z,6.60
2017-11-19T09:27:27.916Z,6.90
2017-11-19T09:29:57.399Z,7.10
2017-11-19T09:32:26.744Z,7.10
2017-11-19T09:34:55.718Z,7.20
2017-11-19T09:37:25.119Z,7.30
2017-11-19T09:39:54.095Z,7.30
2017-11-19T09:42:23.921Z,7.40
2017-11-19T09:44:52.857Z,7.50
2017-11-19T09:47:22.161Z,7.70
2017-11-19T09:49:51.106Z,7.80
2017-11-19T09:52:20.484Z,7.90
2017-11-19T09:54:49.899Z,8.00
2017-11-19T09:57:19.622Z,8.00
2017-11-19T09:59:48.615Z,8.20
2017-11-19T10:02:17.596Z,8.40
2017-11-19T10:04:46.619Z,8.50
2017-11-19T10:07:15.858Z,8.50
2017-11-19T10:09:46.437Z,8.50
2017-11-19T10:12:16.851Z,8.60
2017-11-19T10:14:46.812Z,8.60
2017-11-19T10:17:16.550Z,8.50
2017-11-19T10:19:46.687Z,8.50
2017-11-19T10:22:16.436Z,8.40
2017-11-19T10:24:45.401Z,8.50
2017-11-19T10:27:15.940Z,8.50
2017-11-19T10:29:44.903Z,8.60
2017-11-19T10:32:16.001Z,8.50
2017-11-19T10:34:44.997Z,8.60
2017-11-19T10:37:14.321Z,8.80
2017-11-19T10:39:43.947Z,8.90
2017-11-19T10:42:17.635Z,9.00
2017-11-19T10:44:47.477Z,9.10
2017-11-19T10:47:17.228Z,9.20
2017-11-19T10:49:47.064Z,9.30
2017-11-19T10:52:16.815Z,9.50
2017-11-19T10:54:48.263Z,9.40
2017-11-19T10:57:17.532Z,9.40
2017-11-19T10:59:50.038Z,9.30
2017-11-19T11:02:19.474Z,9.40
2017-11-19T11:04:48.545Z,9.60
2017-11-19T11:07:18.412Z,9.40
2017-11-19T11:09:48.998Z,9.30
2017-11-19T11:12:19.162Z,9.20
2017-11-19T11:14:48.986Z,9.20
2017-11-19T11:17:18.844Z,9.30
2017-11-19T11:19:48.665Z,9.00
2017-11-19T11:22:18.607Z,8.40
2017-11-19T11:24:48.460Z,8.00
2017-11-19T11:27:18.999Z,7.60
2017-11-19T11:29:49.495Z,7.30
2017-11-19T11:32:19.662Z,7.10
2017-11-19T11:34:48.713Z,7.00
2017-11-19T11:37:18.680Z,6.90
2017-11-19T11:39:49.208Z,7.00
2017-11-19T11:42:20.600Z,7.10
2017-11-19T11:44:50.997Z,7.20
2017-11-19T11:47:22.816Z,7.30
2017-11-19T11:49:52.189Z,7.40
2017-11-19T11:52:22.944Z,7.50
2017-11-19T11:54:52.334Z,7.40
2017-11-19T11:57:21.438Z,7.70
2017-11-19T11:59:50.480Z,8.30
2017-11-19T12:02:19.595Z,9.10
2017-11-19T12:04:48.761Z,9.60
2017-11-19T12:07:18.863Z,10.00
2017-11-19T12:09:48.721Z,10.50
2017-11-19T12:12:19.485Z,10.80
2017-11-19T12:14:48.603Z,10.50
2017-11-19T12:17:17.712Z,10.50
2017-11-19T12:19:46.900Z,10.60
2017-11-19T12:22:15.884Z,11.00
2017-11-19T12:24:46.729Z,10.60
2017-11-19T12:27:15.800Z,10.10
2017-11-19T12:29:47.824Z,10.30
2017-11-19T12:32:18.426Z,10.50
2017-11-19T12:34:47.529Z,10.30
2017-11-19T12:37:16.820Z,9.80
2017-11-19T12:39:46.603Z,9.40
2017-11-19T12:42:15.605Z,9.00
2017-11-19T12:44:44.655Z,8.80
2017-11-19T12:47:14.588Z,8.70
2017-11-19T12:49:43.872Z,8.60
2017-11-19T12:52:13.788Z,8.40
2017-11-19T12:54:44.495Z,8.80
2017-11-19T12:57:14.075Z,9.90
2017-11-19T12:59:43.828Z,10.80
2017-11-19T13:02:13.230Z,10.50
2017-11-19T13:04:43.243Z,10.00
2017-11-19T13:07:12.896Z,9.50
2017-11-19T13:09:42.006Z,9.30
2017-11-19T13:12:11.016Z,9.60
2017-11-19T13:14:39.973Z,9.70
2017-11-19T13:17:09.774Z,10.30
2017-11-19T13:19:38.742Z,9.60
2017-11-19T13:22:08.107Z,8.70
2017-11-19T13:24:37.062Z,8.20
2017-11-19T13:27:06.838Z,8.00
2017-11-19T13:29:36.552Z,8.00
2017-11-19T13:32:06.287Z,7.80
2017-11-19T13:34:35.299Z,7.80
2017-11-19T13:37:04.292Z,7.80
2017-11-19T13:39:34.092Z,7.60
2017-11-19T13:42:03.113Z,7.60
2017-11-19T13:44:32.863Z,7.40
2017-11-19T13:47:02.639Z,7.30
2017-11-19T13:49:32.483Z,7.30
2017-11-19T13:52:01.450Z,7.30
2017-11-19T13:54:30.419Z,7.30
2017-11-19T13:56:59.375Z,7.40
2017-11-19T13:59:28.719Z,7.40
2017-11-19T14:01:58.088Z,7.40
2017-11-19T14:04:27.066Z,7.50
2017-11-19T14:06:56.401Z,7.40
2017-11-19T14:09:25.377Z,7.30
2017-11-19T14:11:54.319Z,7.40
2017-11-19T14:14:23.367Z,7.40
2017-11-19T14:16:52.391Z,7.50
2017-11-19T14:19:22.220Z,7.40
2017-11-19T14:21:52.364Z,7.40
2017-11-19T14:24:21.859Z,7.30
2017-11-19T14:26:50.831Z,7.20
2017-11-19T14:29:20.589Z,7.10
2017-11-19T14:31:49.655Z,7.10
2017-11-19T14:34:18.603Z,7.10
2017-11-19T14:36:47.551Z,7.10
2017-11-19T14:39:17.331Z,7.20
2017-11-19T14:41:46.353Z,7.30
2017-11-19T14:44:16.083Z,7.40
2017-11-19T14:46:45.067Z,7.60
2017-11-19T14:49:14.049Z,7.60
2017-11-19T14:51:43.777Z,7.70
2017-11-19T14:54:12.750Z,7.60
2017-11-19T14:56:42.550Z,7.70
2017-11-19T14:59:12.294Z,7.80
2017-11-19T15:01:41.330Z,7.70
2017-11-19T15:04:10.323Z,7.70
2017-11-19T15:06:40.828Z,7.60
2017-11-19T15:09:09.874Z,7.50
2017-11-19T15:11:38.870Z,7.50
2017-11-19T15:14:08.643Z,7.40
2017-11-19T15:16:38.342Z,7.40
2017-11-19T15:19:07.367Z,7.30
2017-11-19T15:21:36.331Z,7.30
2017-11-19T15:24:05.676Z,7.20
2017-11-19T15:26:35.445Z,7.10
2017-11-19T15:29:04.401Z,7.10
2017-11-19T15:31:35.147Z,7.20
2017-11-19T15:34:04.567Z,7.20
2017-11-19T15:36:33.507Z,7.20
2017-11-19T15:39:03.429Z,7.10
2017-11-19T15:41:32.427Z,7.10
2017-11-19T15:44:02.137Z,7.20
2017-11-19T15:46:31.134Z,7.20
2017-11-19T15:49:00.085Z,7.20
2017-11-19T15:51:29.831Z,7.10
2017-11-19T15:53:59.584Z,7.10
2017-11-19T15:56:28.956Z,7.10
2017-11-19T15:58:58.774Z,7.00
2017-11-19T16:01:27.753Z,7.00
2017-11-19T16:03:56.750Z,7.10
2017-11-19T16:06:25.713Z,7.10
2017-11-19T16:08:55.428Z,7.20
2017-11-19T16:11:25.210Z,7.20
2017-11-19T16:13:54.561Z,7.20
2017-11-19T16:16:23.564Z,7.20
2017-11-19T16:18:52.962Z,7.20
2017-11-19T16:21:21.923Z,7.10
2017-11-19T16:23:51.716Z,7.00
2017-11-19T16:26:21.094Z,6.80
2017-11-19T16:28:50.077Z,6.80
2017-11-19T16:31:19.839Z,6.90
2017-11-19T16:33:49.579Z,6.90
2017-11-19T16:36:19.258Z,7.00
2017-11-19T16:38:48.974Z,6.90
2017-11-19T16:41:18.718Z,6.80
2017-11-19T16:43:47.711Z,6.80
2017-11-19T16:46:16.801Z,6.80
2017-11-19T16:48:45.786Z,6.80
2017-11-19T16:51:15.555Z,6.70
2017-11-19T16:53:45.319Z,6.70
2017-11-19T16:56:14.308Z,6.80
2017-11-19T16:58:43.416Z,6.90
2017-11-19T17:01:12.415Z,6.90
2017-11-19T17:03:41.849Z,6.90
2017-11-19T17:06:11.229Z,6.90
2017-11-19T17:08:40.228Z,6.80
2017-11-19T17:11:10.773Z,6.90
2017-11-19T17:13:39.783Z,6.90
2017-11-19T17:16:09.183Z,6.80
2017-11-19T17:18:38.194Z,6.90
2017-11-19T17:21:07.586Z,6.90
2017-11-19T17:23:36.621Z,6.90
2017-11-19T17:26:05.702Z,6.90
2017-11-19T17:28:34.680Z,6.90
2017-11-19T17:31:03.837Z,6.90
2017-11-19T17:33:33.204Z,7.00
2017-11-19T17:36:07.850Z,6.90
2017-11-19T17:38:36.869Z,6.90
2017-11-19T17:41:06.636Z,6.90
2017-11-19T17:43:35.661Z,6.80
2017-11-19T17:46:04.652Z,6.70
2017-11-19T17:48:34.373Z,6.60
2017-11-19T17:51:04.189Z,6.70
2017-11-19T17:53:33.160Z,6.60
2017-11-19T17:56:02.140Z,6.50
2017-11-19T17:58:31.621Z,6.60
2017-11-19T18:01:01.381Z,6.60
2017-11-19T18:03:32.021Z,6.50
2017-11-19T18:06:03.366Z,6.60
2017-11-19T18:08:33.215Z,6.70
2017-11-19T18:11:02.210Z,6.70
2017-11-19T18:13:32.025Z,6.70
2017-11-19T18:16:01.027Z,6.70
2017-11-19T18:18:30.078Z,6.70
2017-11-19T18:20:59.168Z,6.60
2017-11-19T18:23:29.194Z,6.70
2017-11-19T18:25:58.200Z,6.70
2017-11-19T18:28:27.575Z,6.70
2017-11-19T18:30:57.926Z,6.70
2017-11-19T18:33:28.759Z,6.70
2017-11-19T18:35:59.408Z,6.60
2017-11-19T18:38:28.550Z,6.70
2017-11-19T18:40:58.005Z,6.60
2017-11-19T18:43:27.367Z,6.70
2017-11-19T18:45:57.189Z,6.60
2017-11-19T18:48:26.243Z,6.60
2017-11-19T18:50:55.249Z,6.60
2017-11-19T18:53:25.035Z,6.50
2017-11-19T18:55:54.885Z,6.40
2017-11-19T18:58:24.665Z,6.50
2017-11-19T19:00:54.075Z,6.50
2017-11-19T19:03:23.082Z,6.50
2017-11-19T19:05:52.509Z,6.40
2017-11-19T19:08:21.627Z,6.50
2017-11-19T19:10:51.397Z,6.50
2017-11-19T19:13:20.628Z,6.60
2017-11-19T19:15:49.752Z,6.70
2017-11-19T19:18:18.746Z,6.70
2017-11-19T19:20:47.772Z,6.70
2017-11-19T19:23:17.589Z,6.60
2017-11-19T19:25:48.191Z,6.60
2017-11-19T19:28:18.225Z,6.60
2017-11-19T19:30:47.244Z,6.60
2017-11-19T19:33:16.268Z,6.50
2017-11-19T19:35:46.160Z,6.50
2017-11-19T19:38:15.684Z,6.40
2017-11-19T19:40:44.807Z,6.40
2017-11-19T19:43:13.802Z,6.40
2017-11-19T19:45:42.811Z,6.30
2017-11-19T19:48:13.592Z,6.30
2017-11-19T19:50:42.587Z,6.30
2017-11-19T19:53:11.645Z,6.20
2017-11-19T19:55:41.512Z,6.20
2017-11-19T19:58:11.169Z,6.20
2017-11-19T20:00:40.646Z,6.20
2017-11-19T20:03:10.284Z,6.30
2017-11-19T20:05:40.082Z,6.30
2017-11-19T20:08:09.910Z,6.30
2017-11-19T20:10:39.700Z,6.40
2017-11-19T20:13:09.149Z,6.40
2017-11-19T20:15:38.300Z,6.40
2017-11-19T20:18:07.326Z,6.40
2017-11-19T20:20:36.297Z,6.40
2017-11-19T20:23:06.072Z,6.50
2017-11-19T20:25:35.348Z,6.60
2017-11-19T20:28:04.466Z,6.60
2017-11-19T20:30:33.507Z,6.50
2017-11-19T20:33:02.611Z,6.60
2017-11-19T20:35:32.285Z,6.50
2017-11-19T20:38:01.641Z,6.50
2017-11-19T20:40:30.638Z,6.40
2017-11-19T20:42:59.797Z,6.40
2017-11-19T20:45:28.845Z,6.50
2017-11-19T20:47:57.943Z,6.40
2017-11-19T20:50:27.709Z,6.40
2017-11-19T20:52:56.850Z,6.40
2017-11-19T20:55:26.753Z,6.20
2017-11-19T20:57:55.784Z,6.10
2017-11-19T21:12:50.769Z,5.90
2017-11-19T21:15:21.323Z,5.80
2017-11-19T21:17:57.229Z,5.80
2017-11-19T21:20:26.288Z,5.70
2017-11-19T21:23:18.979Z,5.60
2017-11-19T21:25:48.008Z,5.60
2017-11-19T21:28:18.894Z,5.50
2017-11-19T21:30:48.715Z,5.50
2017-11-19T21:33:19.826Z,5.50
2017-11-19T21:35:50.489Z,5.50
2017-11-19T21:38:19.746Z,5.50
2017-11-19T21:40:49.450Z,5.40
2017-11-19T21:43:19.295Z,5.50
2017-11-19T21:45:48.596Z,5.50
2017-11-19T21:48:17.865Z,5.60
2017-11-19T21:50:46.868Z,5.50
2017-11-19T21:53:16.131Z,5.50
2017-11-19T21:55:46.148Z,5.50
2017-11-19T21:58:15.906Z,5.50
2017-11-19T22:00:48.853Z,5.40
2017-11-19T22:03:17.783Z,5.40
2017-11-19T22:05:47.088Z,5.30
2017-11-19T22:08:16.469Z,5.30
2017-11-19T22:10:45.425Z,5.20
2017-11-19T22:13:14.429Z,5.20
2017-11-19T22:15:44.138Z,5.20
2017-11-19T22:18:13.412Z,5.10
2017-11-19T22:20:42.405Z,5.10
2017-11-19T22:23:12.410Z,5.10
2017-11-19T22:25:42.226Z,5.20
2017-11-19T22:28:11.559Z,5.30
2017-11-19T22:30:40.548Z,5.40
2017-11-19T22:33:09.528Z,5.50
2017-11-19T22:35:39.516Z,5.60
2017-11-19T22:38:09.564Z,5.70
2017-11-19T22:40:38.517Z,5.80
2017-11-19T22:43:07.980Z,5.80
2017-11-19T22:48:23.032Z,5.90
2017-11-19T22:50:52.778Z,5.90
2017-11-19T22:53:22.183Z,5.90
2017-11-19T22:56:04.730Z,5.80
2017-11-19T22:58:46.709Z,5.80
2017-11-19T23:01:15.707Z,5.70
2017-11-19T23:03:44.963Z,5.80
2017-11-19T23:06:15.025Z,5.80
2017-11-19T23:08:45.119Z,5.80
2017-11-19T23:11:14.473Z,5.80
2017-11-19T23:13:44.668Z,5.70
2017-11-19T23:16:14.703Z,5.60
2017-11-19T23:18:43.697Z,5.70
2017-11-19T23:21:12.692Z,5.70
2017-11-19T23:23:42.452Z,5.70
2017-11-19T23:26:23.898Z,5.60
2017-11-19T23:29:05.796Z,5.50
2017-11-19T23:31:48.568Z,5.60
2017-11-19T23:34:30.874Z,5.40
2017-11-19T23:40:08.023Z,5.30
2017-11-19T23:42:45.317Z,5.20
2017-11-19T23:45:18.696Z,5.20
2017-11-19T23:47:48.748Z,5.20
2017-11-19T23:50:17.725Z,5.10
2017-11-19T23:52:47.003Z,5.00
2017-11-19T23:55:16.308Z,5.00
2017-11-19T23:57:45.777Z,5.00
